sensor_id;sensor_type;location;lat;lon;timestamp;P1;durP1;ratioP1;P2;durP2;ratioP2
27576;SDS011;15011;53.380;10.034;2024-02-26T00:02:14;14.73;;;6.38;;
27576;SDS011;15011;53.380;10.034;2024-02-26T00:07:14;16.63;;;7.38;;
27576;SDS011;15011;53.380;10.034;2024-02-26T00:12:15;23.97;;;8.60;;
27576;SDS011;15011;53.380;10.034;2024-02-26T00:17:15;22.30;;;8.77;;
27576;SDS011;15011;53.380;10.034;2024-02-26T00:22:16;19.67;;;7.63;;
27576;SDS011;15011;53.380;10.034;2024-02-26T00:27:16;34.07;;;11.17;;
27576;SDS011;15011;53.380;10.034;2024-02-26T00:32:17;28.70;;;8.70;;
27576;SDS011;15011;53.380;10.034;2024-02-26T00:37:17;22.97;;;8.80;;
27576;SDS011;15011;53.380;10.034;2024-02-26T00:42:17;17.47;;;7.23;;
27576;SDS011;15011;53.380;10.034;2024-02-26T00:47:18;14.67;;;6.73;;
27576;SDS011;15011;53.380;10.034;2024-02-26T00:52:18;15.17;;;7.50;;
27576;SDS011;15011;53.380;10.034;2024-02-26T00:57:19;16.15;;;7.43;;
27576;SDS011;15011;53.380;10.034;2024-02-26T01:02:19;12.40;;;6.10;;
27576;SDS011;15011;53.380;10.034;2024-02-26T01:07:20;13.60;;;7.22;;
27576;SDS011;15011;53.380;10.034;2024-02-26T01:12:20;11.77;;;5.87;;
27576;SDS011;15011;53.380;10.034;2024-02-26T01:17:21;14.13;;;6.55;;
27576;SDS011;15011;53.380;10.034;2024-02-26T01:22:22;13.47;;;5.93;;
27576;SDS011;15011;53.380;10.034;2024-02-26T01:27:22;8.35;;;4.97;;
27576;SDS011;15011;53.380;10.034;2024-02-26T01:32:26;16.70;;;8.02;;
27576;SDS011;15011;53.380;10.034;2024-02-26T01:37:27;11.93;;;7.30;;
27576;SDS011;15011;53.380;10.034;2024-02-26T01:42:30;9.95;;;5.93;;
27576;SDS011;15011;53.380;10.034;2024-02-26T01:47:32;16.40;;;6.30;;
27576;SDS011;15011;53.380;10.034;2024-02-26T01:52:33;19.67;;;8.10;;
27576;SDS011;15011;53.380;10.034;2024-02-26T01:57:33;14.30;;;7.30;;
27576;SDS011;15011;53.380;10.034;2024-02-26T02:02:34;16.23;;;6.70;;
27576;SDS011;15011;53.380;10.034;2024-02-26T02:07:35;14.57;;;7.38;;
27576;SDS011;15011;53.380;10.034;2024-02-26T02:12:35;14.10;;;7.35;;
27576;SDS011;15011;53.380;10.034;2024-02-26T02:17:38;12.38;;;6.80;;
27576;SDS011;15011;53.380;10.034;2024-02-26T02:22:39;16.70;;;8.50;;
27576;SDS011;15011;53.380;10.034;2024-02-26T02:27:40;15.80;;;8.00;;
27576;SDS011;15011;53.380;10.034;2024-02-26T02:32:41;12.50;;;7.20;;
27576;SDS011;15011;53.380;10.034;2024-02-26T02:37:42;13.20;;;6.57;;
27576;SDS011;15011;53.380;10.034;2024-02-26T02:42:42;10.77;;;6.73;;
27576;SDS011;15011;53.380;10.034;2024-02-26T02:47:42;12.47;;;7.17;;
27576;SDS011;15011;53.380;10.034;2024-02-26T02:52:43;51.90;;;10.03;;
27576;SDS011;15011;53.380;10.034;2024-02-26T02:57:43;38.53;;;9.60;;
27576;SDS011;15011;53.380;10.034;2024-02-26T03:02:45;21.13;;;8.20;;
27576;SDS011;15011;53.380;10.034;2024-02-26T03:07:46;25.63;;;8.43;;
27576;SDS011;15011;53.380;10.034;2024-02-26T03:12:46;57.42;;;9.57;;
27576;SDS011;15011;53.380;10.034;2024-02-26T03:17:47;70.50;;;10.87;;
27576;SDS011;15011;53.380;10.034;2024-02-26T03:22:47;35.87;;;8.27;;
27576;SDS011;15011;53.380;10.034;2024-02-26T03:27:48;13.20;;;6.00;;
27576;SDS011;15011;53.380;10.034;2024-02-26T03:32:48;14.88;;;7.88;;
27576;SDS011;15011;53.380;10.034;2024-02-26T03:37:49;13.23;;;6.50;;
27576;SDS011;15011;53.380;10.034;2024-02-26T03:47:54;11.98;;;6.13;;
27576;SDS011;15011;53.380;10.034;2024-02-26T03:52:54;11.33;;;6.37;;
27576;SDS011;15011;53.380;10.034;2024-02-26T03:57:55;26.05;;;7.40;;
27576;SDS011;15011;53.380;10.034;2024-02-26T04:02:56;19.42;;;7.43;;
27576;SDS011;15011;53.380;10.034;2024-02-26T04:07:56;23.70;;;6.75;;
27576;SDS011;15011;53.380;10.034;2024-02-26T04:12:57;18.73;;;6.63;;
27576;SDS011;15011;53.380;10.034;2024-02-26T04:17:57;20.43;;;6.47;;
27576;SDS011;15011;53.380;10.034;2024-02-26T04:22:58;15.83;;;7.27;;
27576;SDS011;15011;53.380;10.034;2024-02-26T04:27:58;11.20;;;5.70;;
27576;SDS011;15011;53.380;10.034;2024-02-26T04:32:59;11.02;;;6.30;;
27576;SDS011;15011;53.380;10.034;2024-02-26T04:37:59;15.77;;;7.47;;
27576;SDS011;15011;53.380;10.034;2024-02-26T04:42:59;15.43;;;7.20;;
27576;SDS011;15011;53.380;10.034;2024-02-26T04:48:00;12.63;;;6.70;;
27576;SDS011;15011;53.380;10.034;2024-02-26T04:53:00;12.18;;;6.93;;
27576;SDS011;15011;53.380;10.034;2024-02-26T04:58:01;23.27;;;7.63;;
27576;SDS011;15011;53.380;10.034;2024-02-26T05:03:01;10.13;;;6.13;;
27576;SDS011;15011;53.380;10.034;2024-02-26T05:08:02;28.33;;;7.93;;
27576;SDS011;15011;53.380;10.034;2024-02-26T05:13:03;31.55;;;8.55;;
27576;SDS011;15011;53.380;10.034;2024-02-26T05:18:04;12.57;;;5.82;;
27576;SDS011;15011;53.380;10.034;2024-02-26T05:23:05;11.48;;;5.90;;
27576;SDS011;15011;53.380;10.034;2024-02-26T05:28:05;18.35;;;6.68;;
27576;SDS011;15011;53.380;10.034;2024-02-26T05:33:06;12.23;;;7.73;;
27576;SDS011;15011;53.380;10.034;2024-02-26T05:38:06;10.77;;;6.27;;
27576;SDS011;15011;53.380;10.034;2024-02-26T05:43:06;25.27;;;7.53;;
27576;SDS011;15011;53.380;10.034;2024-02-26T05:48:07;12.63;;;5.97;;
27576;SDS011;15011;53.380;10.034;2024-02-26T05:53:07;11.00;;;5.93;;
27576;SDS011;15011;53.380;10.034;2024-02-26T05:58:08;50.90;;;9.82;;
27576;SDS011;15011;53.380;10.034;2024-02-26T06:03:09;29.45;;;6.97;;
27576;SDS011;15011;53.380;10.034;2024-02-26T06:08:09;31.63;;;7.93;;
27576;SDS011;15011;53.380;10.034;2024-02-26T06:13:09;17.25;;;6.07;;
27576;SDS011;15011;53.380;10.034;2024-02-26T06:18:10;9.30;;;5.97;;
27576;SDS011;15011;53.380;10.034;2024-02-26T06:23:10;34.57;;;7.57;;
27576;SDS011;15011;53.380;10.034;2024-02-26T06:28:11;29.95;;;7.47;;
27576;SDS011;15011;53.380;10.034;2024-02-26T06:33:11;11.85;;;5.80;;
27576;SDS011;15011;53.380;10.034;2024-02-26T06:38:12;14.27;;;6.00;;
27576;SDS011;15011;53.380;10.034;2024-02-26T06:43:14;17.52;;;6.07;;
27576;SDS011;15011;53.380;10.034;2024-02-26T06:48:14;17.13;;;6.35;;
27576;SDS011;15011;53.380;10.034;2024-02-26T06:53:14;13.03;;;6.10;;
27576;SDS011;15011;53.380;10.034;2024-02-26T06:58:16;9.80;;;6.03;;
27576;SDS011;15011;53.380;10.034;2024-02-26T07:03:17;8.45;;;5.75;;
27576;SDS011;15011;53.380;10.034;2024-02-26T07:08:18;17.37;;;7.17;;
27576;SDS011;15011;53.380;10.034;2024-02-26T07:13:18;11.02;;;7.18;;
27576;SDS011;15011;53.380;10.034;2024-02-26T07:18:18;10.57;;;6.67;;
27576;SDS011;15011;53.380;10.034;2024-02-26T07:23:19;17.20;;;7.97;;
27576;SDS011;15011;53.380;10.034;2024-02-26T07:28:19;11.40;;;6.60;;
27576;SDS011;15011;53.380;10.034;2024-02-26T07:33:20;10.90;;;6.53;;
27576;SDS011;15011;53.380;10.034;2024-02-26T07:38:20;12.50;;;6.77;;
27576;SDS011;15011;53.380;10.034;2024-02-26T07:43:21;12.57;;;7.13;;
27576;SDS011;15011;53.380;10.034;2024-02-26T07:48:21;11.57;;;6.57;;
27576;SDS011;15011;53.380;10.034;2024-02-26T07:53:22;12.23;;;7.07;;
27576;SDS011;15011;53.380;10.034;2024-02-26T07:58:25;13.00;;;7.53;;
27576;SDS011;15011;53.380;10.034;2024-02-26T08:03:26;11.13;;;7.43;;
27576;SDS011;15011;53.380;10.034;2024-02-26T08:08:26;13.32;;;7.72;;
27576;SDS011;15011;53.380;10.034;2024-02-26T08:13:27;12.57;;;7.45;;
27576;SDS011;15011;53.380;10.034;2024-02-26T08:18:27;12.63;;;7.97;;
27576;SDS011;15011;53.380;10.034;2024-02-26T08:23:27;11.10;;;7.10;;
27576;SDS011;15011;53.380;10.034;2024-02-26T08:28:29;17.98;;;8.70;;
27576;SDS011;15011;53.380;10.034;2024-02-26T08:33:29;17.23;;;9.20;;
27576;SDS011;15011;53.380;10.034;2024-02-26T08:38:30;12.85;;;8.18;;
27576;SDS011;15011;53.380;10.034;2024-02-26T08:43:31;14.82;;;8.73;;
27576;SDS011;15011;53.380;10.034;2024-02-26T08:48:31;13.83;;;8.00;;
27576;SDS011;15011;53.380;10.034;2024-02-26T08:53:32;16.13;;;8.67;;
27576;SDS011;15011;53.380;10.034;2024-02-26T08:58:33;16.77;;;8.95;;
27576;SDS011;15011;53.380;10.034;2024-02-26T09:03:33;14.07;;;9.25;;
27576;SDS011;15011;53.380;10.034;2024-02-26T09:08:33;11.70;;;8.07;;
27576;SDS011;15011;53.380;10.034;2024-02-26T09:13:36;15.40;;;8.40;;
27576;SDS011;15011;53.380;10.034;2024-02-26T09:18:36;13.60;;;8.20;;
27576;SDS011;15011;53.380;10.034;2024-02-26T09:23:37;16.83;;;8.33;;
27576;SDS011;15011;53.380;10.034;2024-02-26T09:28:37;12.17;;;7.20;;
27576;SDS011;15011;53.380;10.034;2024-02-26T09:33:38;10.75;;;6.72;;
27576;SDS011;15011;53.380;10.034;2024-02-26T09:38:39;12.73;;;7.33;;
27576;SDS011;15011;53.380;10.034;2024-02-26T09:43:40;13.30;;;7.72;;
27576;SDS011;15011;53.380;10.034;2024-02-26T09:48:45;12.30;;;7.78;;
27576;SDS011;15011;53.380;10.034;2024-02-26T09:53:46;12.75;;;8.02;;
27576;SDS011;15011;53.380;10.034;2024-02-26T09:58:47;18.23;;;8.60;;
27576;SDS011;15011;53.380;10.034;2024-02-26T10:03:56;14.18;;;8.55;;
27576;SDS011;15011;53.380;10.034;2024-02-26T10:08:58;12.55;;;8.45;;
27576;SDS011;15011;53.380;10.034;2024-02-26T10:14:00;10.60;;;6.90;;
27576;SDS011;15011;53.380;10.034;2024-02-26T10:19:00;10.05;;;6.10;;
27576;SDS011;15011;53.380;10.034;2024-02-26T10:24:01;10.50;;;6.47;;
27576;SDS011;15011;53.380;10.034;2024-02-26T10:29:01;8.73;;;6.63;;
27576;SDS011;15011;53.380;10.034;2024-02-26T10:34:02;9.27;;;6.23;;
27576;SDS011;15011;53.380;10.034;2024-02-26T10:39:06;7.90;;;5.55;;
27576;SDS011;15011;53.380;10.034;2024-02-26T10:44:08;9.75;;;6.65;;
27576;SDS011;15011;53.380;10.034;2024-02-26T10:49:14;7.25;;;5.88;;
27576;SDS011;15011;53.380;10.034;2024-02-26T10:54:20;7.63;;;6.32;;
27576;SDS011;15011;53.380;10.034;2024-02-26T10:59:21;6.93;;;5.20;;
27576;SDS011;15011;53.380;10.034;2024-02-26T11:04:22;7.60;;;5.45;;
27576;SDS011;15011;53.380;10.034;2024-02-26T11:09:23;6.63;;;5.35;;
27576;SDS011;15011;53.380;10.034;2024-02-26T11:14:24;7.03;;;5.20;;
27576;SDS011;15011;53.380;10.034;2024-02-26T11:19:26;7.72;;;5.88;;
27576;SDS011;15011;53.380;10.034;2024-02-26T11:29:29;30.07;;;15.87;;
27576;SDS011;15011;53.380;10.034;2024-02-26T11:34:38;7.68;;;6.05;;
27576;SDS011;15011;53.380;10.034;2024-02-26T11:39:42;7.53;;;4.97;;
27576;SDS011;15011;53.380;10.034;2024-02-26T11:44:45;7.13;;;5.13;;
27576;SDS011;15011;53.380;10.034;2024-02-26T11:49:45;6.43;;;4.60;;
27576;SDS011;15011;53.380;10.034;2024-02-26T11:54:49;6.65;;;4.57;;
27576;SDS011;15011;53.380;10.034;2024-02-26T11:59:52;6.70;;;4.10;;
27576;SDS011;15011;53.380;10.034;2024-02-26T12:04:53;6.95;;;4.95;;
27576;SDS011;15011;53.380;10.034;2024-02-26T12:09:56;6.23;;;5.03;;
27576;SDS011;15011;53.380;10.034;2024-02-26T12:15:15;6.07;;;4.82;;
27576;SDS011;15011;53.380;10.034;2024-02-26T12:20:16;5.07;;;4.53;;
27576;SDS011;15011;53.380;10.034;2024-02-26T12:25:17;5.57;;;4.88;;
27576;SDS011;15011;53.380;10.034;2024-02-26T12:30:21;5.75;;;4.55;;
27576;SDS011;15011;53.380;10.034;2024-02-26T12:35:23;5.72;;;4.82;;
27576;SDS011;15011;53.380;10.034;2024-02-26T12:40:24;6.90;;;5.15;;
27576;SDS011;15011;53.380;10.034;2024-02-26T12:45:26;8.80;;;5.68;;
27576;SDS011;15011;53.380;10.034;2024-02-26T12:50:28;8.63;;;6.25;;
27576;SDS011;15011;53.380;10.034;2024-02-26T12:55:29;11.15;;;6.03;;
27576;SDS011;15011;53.380;10.034;2024-02-26T13:00:30;10.50;;;6.10;;
27576;SDS011;15011;53.380;10.034;2024-02-26T13:10:31;9.77;;;6.00;;
27576;SDS011;15011;53.380;10.034;2024-02-26T13:15:32;8.23;;;5.73;;
27576;SDS011;15011;53.380;10.034;2024-02-26T13:20:32;11.15;;;6.72;;
27576;SDS011;15011;53.380;10.034;2024-02-26T13:25:34;9.70;;;6.38;;
27576;SDS011;15011;53.380;10.034;2024-02-26T13:30:36;10.68;;;6.85;;
27576;SDS011;15011;53.380;10.034;2024-02-26T13:35:36;8.57;;;5.53;;
27576;SDS011;15011;53.380;10.034;2024-02-26T13:40:39;12.27;;;7.03;;
27576;SDS011;15011;53.380;10.034;2024-02-26T13:45:39;11.90;;;7.00;;
27576;SDS011;15011;53.380;10.034;2024-02-26T13:50:43;10.57;;;6.57;;
27576;SDS011;15011;53.380;10.034;2024-02-26T13:55:45;10.38;;;6.55;;
27576;SDS011;15011;53.380;10.034;2024-02-26T14:00:45;10.00;;;6.40;;
27576;SDS011;15011;53.380;10.034;2024-02-26T14:05:46;9.17;;;5.97;;
27576;SDS011;15011;53.380;10.034;2024-02-26T14:10:46;11.00;;;6.20;;
27576;SDS011;15011;53.380;10.034;2024-02-26T14:15:47;9.53;;;4.87;;
27576;SDS011;15011;53.380;10.034;2024-02-26T14:20:47;9.40;;;5.95;;
27576;SDS011;15011;53.380;10.034;2024-02-26T14:25:48;7.90;;;5.33;;
27576;SDS011;15011;53.380;10.034;2024-02-26T14:30:48;9.83;;;6.33;;
27576;SDS011;15011;53.380;10.034;2024-02-26T14:35:49;9.77;;;6.13;;
27576;SDS011;15011;53.380;10.034;2024-02-26T14:40:49;15.73;;;9.30;;
27576;SDS011;15011;53.380;10.034;2024-02-26T14:45:50;10.73;;;6.60;;
27576;SDS011;15011;53.380;10.034;2024-02-26T14:50:50;13.60;;;7.40;;
27576;SDS011;15011;53.380;10.034;2024-02-26T14:55:50;9.90;;;7.30;;
27576;SDS011;15011;53.380;10.034;2024-02-26T15:00:51;12.40;;;7.07;;
27576;SDS011;15011;53.380;10.034;2024-02-26T15:05:52;10.87;;;6.77;;
27576;SDS011;15011;53.380;10.034;2024-02-26T15:10:52;11.55;;;6.75;;
27576;SDS011;15011;53.380;10.034;2024-02-26T15:15:53;10.53;;;6.83;;
27576;SDS011;15011;53.380;10.034;2024-02-26T15:20:53;10.23;;;6.97;;
27576;SDS011;15011;53.380;10.034;2024-02-26T15:25:54;10.55;;;6.63;;
27576;SDS011;15011;53.380;10.034;2024-02-26T15:30:55;11.75;;;7.88;;
27576;SDS011;15011;53.380;10.034;2024-02-26T15:35:55;9.63;;;6.65;;
27576;SDS011;15011;53.380;10.034;2024-02-26T15:40:56;12.25;;;7.20;;
27576;SDS011;15011;53.380;10.034;2024-02-26T15:45:56;12.53;;;7.40;;
27576;SDS011;15011;53.380;10.034;2024-02-26T15:50:57;11.63;;;7.23;;
27576;SDS011;15011;53.380;10.034;2024-02-26T15:55:57;12.02;;;7.47;;
27576;SDS011;15011;53.380;10.034;2024-02-26T16:00:59;13.25;;;8.02;;
27576;SDS011;15011;53.380;10.034;2024-02-26T16:05:59;13.27;;;8.77;;
27576;SDS011;15011;53.380;10.034;2024-02-26T16:11:00;13.43;;;8.30;;
27576;SDS011;15011;53.380;10.034;2024-02-26T16:16:06;13.53;;;7.50;;
27576;SDS011;15011;53.380;10.034;2024-02-26T16:21:19;12.15;;;7.40;;
27576;SDS011;15011;53.380;10.034;2024-02-26T16:26:19;14.90;;;8.30;;
27576;SDS011;15011;53.380;10.034;2024-02-26T16:31:20;12.68;;;7.85;;
27576;SDS011;15011;53.380;10.034;2024-02-26T16:36:20;10.43;;;6.57;;
27576;SDS011;15011;53.380;10.034;2024-02-26T16:41:21;14.30;;;8.10;;
27576;SDS011;15011;53.380;10.034;2024-02-26T16:46:21;14.47;;;8.83;;
27576;SDS011;15011;53.380;10.034;2024-02-26T16:51:21;16.93;;;9.33;;
27576;SDS011;15011;53.380;10.034;2024-02-26T16:56:22;12.37;;;7.90;;
27576;SDS011;15011;53.380;10.034;2024-02-26T17:01:22;15.57;;;8.83;;
27576;SDS011;15011;53.380;10.034;2024-02-26T17:06:23;15.02;;;8.73;;
27576;SDS011;15011;53.380;10.034;2024-02-26T17:11:24;15.00;;;8.93;;
27576;SDS011;15011;53.380;10.034;2024-02-26T17:16:25;10.57;;;7.28;;
27576;SDS011;15011;53.380;10.034;2024-02-26T17:21:25;13.60;;;7.23;;
27576;SDS011;15011;53.380;10.034;2024-02-26T17:26:26;14.73;;;8.00;;
27576;SDS011;15011;53.380;10.034;2024-02-26T17:31:27;13.63;;;8.38;;
27576;SDS011;15011;53.380;10.034;2024-02-26T17:36:29;13.70;;;8.43;;
27576;SDS011;15011;53.380;10.034;2024-02-26T17:41:31;14.27;;;8.27;;
27576;SDS011;15011;53.380;10.034;2024-02-26T17:46:31;13.13;;;8.03;;
27576;SDS011;15011;53.380;10.034;2024-02-26T17:51:32;14.50;;;7.90;;
27576;SDS011;15011;53.380;10.034;2024-02-26T17:56:33;15.70;;;8.85;;
27576;SDS011;15011;53.380;10.034;2024-02-26T18:01:33;14.50;;;8.07;;
27576;SDS011;15011;53.380;10.034;2024-02-26T18:06:34;14.53;;;7.93;;
27576;SDS011;15011;53.380;10.034;2024-02-26T18:11:34;17.60;;;7.97;;
27576;SDS011;15011;53.380;10.034;2024-02-26T18:16:34;14.43;;;7.93;;
27576;SDS011;15011;53.380;10.034;2024-02-26T18:21:35;16.90;;;9.13;;
27576;SDS011;15011;53.380;10.034;2024-02-26T18:26:35;15.98;;;8.30;;
27576;SDS011;15011;53.380;10.034;2024-02-26T18:31:36;18.50;;;9.30;;
27576;SDS011;15011;53.380;10.034;2024-02-26T18:36:36;19.80;;;9.02;;
27576;SDS011;15011;53.380;10.034;2024-02-26T18:41:42;17.30;;;8.90;;
27576;SDS011;15011;53.380;10.034;2024-02-26T18:46:43;16.90;;;8.97;;
27576;SDS011;15011;53.380;10.034;2024-02-26T18:51:45;18.98;;;9.90;;
27576;SDS011;15011;53.380;10.034;2024-02-26T18:56:45;15.23;;;8.47;;
27576;SDS011;15011;53.380;10.034;2024-02-26T19:01:45;16.50;;;7.47;;
27576;SDS011;15011;53.380;10.034;2024-02-26T19:06:46;13.85;;;7.10;;
27576;SDS011;15011;53.380;10.034;2024-02-26T19:11:47;12.82;;;6.63;;
27576;SDS011;15011;53.380;10.034;2024-02-26T19:16:48;10.65;;;5.95;;
27576;SDS011;15011;53.380;10.034;2024-02-26T19:21:49;12.68;;;6.85;;
27576;SDS011;15011;53.380;10.034;2024-02-26T19:26:50;11.32;;;6.43;;
27576;SDS011;15011;53.380;10.034;2024-02-26T19:31:50;11.80;;;6.17;;
27576;SDS011;15011;53.380;10.034;2024-02-26T19:36:51;12.70;;;6.93;;
27576;SDS011;15011;53.380;10.034;2024-02-26T19:41:51;18.27;;;8.70;;
27576;SDS011;15011;53.380;10.034;2024-02-26T19:46:51;17.97;;;9.33;;
27576;SDS011;15011;53.380;10.034;2024-02-26T19:51:52;14.67;;;7.27;;
27576;SDS011;15011;53.380;10.034;2024-02-26T19:56:52;16.77;;;9.40;;
27576;SDS011;15011;53.380;10.034;2024-02-26T20:01:53;14.30;;;7.63;;
27576;SDS011;15011;53.380;10.034;2024-02-26T20:06:53;16.58;;;7.47;;
27576;SDS011;15011;53.380;10.034;2024-02-26T20:11:55;13.33;;;7.20;;
27576;SDS011;15011;53.380;10.034;2024-02-26T20:16:58;18.13;;;7.97;;
27576;SDS011;15011;53.380;10.034;2024-02-26T20:21:59;14.70;;;8.05;;
27576;SDS011;15011;53.380;10.034;2024-02-26T20:27:00;14.02;;;7.55;;
27576;SDS011;15011;53.380;10.034;2024-02-26T20:32:01;15.25;;;7.30;;
27576;SDS011;15011;53.380;10.034;2024-02-26T20:37:01;23.73;;;12.82;;
27576;SDS011;15011;53.380;10.034;2024-02-26T20:42:02;17.95;;;9.07;;
27576;SDS011;15011;53.380;10.034;2024-02-26T20:47:03;15.65;;;8.70;;
27576;SDS011;15011;53.380;10.034;2024-02-26T20:52:04;15.00;;;7.18;;
27576;SDS011;15011;53.380;10.034;2024-02-26T20:57:05;12.95;;;6.85;;
27576;SDS011;15011;53.380;10.034;2024-02-26T21:07:08;14.73;;;6.97;;
27576;SDS011;15011;53.380;10.034;2024-02-26T21:12:09;16.67;;;7.82;;
27576;SDS011;15011;53.380;10.034;2024-02-26T21:17:11;15.32;;;7.72;;
27576;SDS011;15011;53.380;10.034;2024-02-26T21:22:11;16.80;;;8.07;;
27576;SDS011;15011;53.380;10.034;2024-02-26T21:27:12;16.37;;;7.80;;
27576;SDS011;15011;53.380;10.034;2024-02-26T21:32:12;16.15;;;7.18;;
27576;SDS011;15011;53.380;10.034;2024-02-26T21:37:13;15.82;;;7.60;;
27576;SDS011;15011;53.380;10.034;2024-02-26T21:42:13;18.37;;;8.30;;
27576;SDS011;15011;53.380;10.034;2024-02-26T21:47:13;17.40;;;7.87;;
27576;SDS011;15011;53.380;10.034;2024-02-26T21:52:14;16.63;;;8.07;;
27576;SDS011;15011;53.380;10.034;2024-02-26T21:57:17;18.58;;;8.30;;
27576;SDS011;15011;53.380;10.034;2024-02-26T22:02:18;19.85;;;8.23;;
27576;SDS011;15011;53.380;10.034;2024-02-26T22:07:18;22.52;;;9.50;;
27576;SDS011;15011;53.380;10.034;2024-02-26T22:12:19;21.17;;;10.60;;
27576;SDS011;15011;53.380;10.034;2024-02-26T22:17:19;20.67;;;9.30;;
27576;SDS011;15011;53.380;10.034;2024-02-26T22:22:20;19.98;;;9.63;;
27576;SDS011;15011;53.380;10.034;2024-02-26T22:27:21;23.17;;;10.53;;
27576;SDS011;15011;53.380;10.034;2024-02-26T22:32:21;24.83;;;10.63;;
27576;SDS011;15011;53.380;10.034;2024-02-26T22:37:22;24.23;;;11.13;;
27576;SDS011;15011;53.380;10.034;2024-02-26T22:42:22;26.10;;;10.83;;
27576;SDS011;15011;53.380;10.034;2024-02-26T22:47:22;26.17;;;10.17;;
27576;SDS011;15011;53.380;10.034;2024-02-26T22:52:23;27.38;;;10.73;;
27576;SDS011;15011;53.380;10.034;2024-02-26T22:57:23;22.67;;;10.00;;
27576;SDS011;15011;53.380;10.034;2024-02-26T23:02:24;23.77;;;9.17;;
27576;SDS011;15011;53.380;10.034;2024-02-26T23:07:24;24.83;;;9.13;;
27576;SDS011;15011;53.380;10.034;2024-02-26T23:12:25;27.83;;;11.15;;
27576;SDS011;15011;53.380;10.034;2024-02-26T23:17:25;29.60;;;10.97;;
27576;SDS011;15011;53.380;10.034;2024-02-26T23:22:26;28.65;;;11.07;;
27576;SDS011;15011;53.380;10.034;2024-02-26T23:27:26;28.37;;;9.80;;
27576;SDS011;15011;53.380;10.034;2024-02-26T23:32:26;31.97;;;11.33;;
27576;SDS011;15011;53.380;10.034;2024-02-26T23:37:27;27.93;;;10.77;;
27576;SDS011;15011;53.380;10.034;2024-02-26T23:42:27;27.67;;;11.02;;
27576;SDS011;15011;53.380;10.034;2024-02-26T23:47:29;34.53;;;11.27;;
27576;SDS011;15011;53.380;10.034;2024-02-26T23:52:29;25.65;;;11.43;;
27576;SDS011;15011;53.380;10.034;2024-02-26T23:57:30;32.53;;;12.03;;
